Terminal Aerodrome Forecast
Issued by NWS Twin Cities, MN

Home | Current Version | Previous Version | Graphics & Text | Print | Product List | Glossary On
Versions: 1 2 3 4 5 6 7 8 9 10 11 12 13 14 15 16 17 18 19 20 21 22 23 24 25 26 27 28 29 30
024
FTUS43 KMPX 230520
TAFMSP
TAF
KMSP 230520Z 2306/2412 18012KT P6SM SKC WS020/21050KT
     FM231430 19014G22KT P6SM SCT250
     FM240200 16012KT P6SM BKN050 OVC120 PROB30 2409/2412 4SM -TSRA
      BKN035CB=

USA.gov is the U.S. government's official web portal to all federal, state and local government web resources and services.